ブエノスアイレス/エセイサ の空港の天気 - METARとTAF

エセイサ国際空港 ( SAEZ / EZE ) - アルゼンチン ブエノスアイレス州、Ezeiza
飛行場実況気象(Metar)
観測時間07/22 15:00 ART (07/22 18:00 UTC)
風向・風速北西 4m/s
視程10km以上
天気現象
なし
気温12℃
湿度67%
気圧1017hPa
METARSAEZ 221800Z 32008KT CAVOK 12/06 Q1017 NOSIG
過去の天気等 Google飛行場航空写真 Wunderground天気予報

過去48時間のMETAR

飛行場予報(TAF)
発表時間: 7/22 14:00 ART (7/22 17:00 UTC)
予報対象時間: 22日15時 ART ~ 23日15時 ART
風向・風速北 5m/s
視程10km以上
なし
22日16時 ART ~ 22日18時 ART に徐々に
風向・風速西南西 5m/s
22日20時 ART ~ 22日22時 ART に徐々に
風向・風速南西 8m/s
TAF SAEZ 221700Z 2218/2318 35010KT CAVOK TX15/2218Z TN02/2310Z
BECMG 2219/2221 25010KT
BECMG 2223/2301 23015KT